Time;durP1;ratioP1;P1;durP2;ratioP2;P2;SDS_P1;SDS_P2;PMS_P1;PMS_P2;Temp;Humidity;BMP_temperature;BMP_pressure;BME280_temperature;BME280_humidity;BME280_pressure;Samples;Min_cycle;Max_cycle;Signal;HPM_P1;HPM_P2
2023/05/27 00:01:36;;;;;;;0.20;0.20;;;;;;;;;;5115739;27;20051;-48
2023/05/27 00:04:02;;;;;;;0.20;0.20;;;;;;;;;;5118968;27;20055;-47
2023/05/27 00:06:27;;;;;;;0.20;0.20;;;;;;;;;;5103238;27;20130;-47
2023/05/27 00:08:53;;;;;;;0.20;0.20;;;;;;;;;;5112287;28;20510;-47
2023/05/27 00:11:19;;;;;;;0.20;0.20;;;;;;;;;;5109458;27;20395;-48
2023/05/27 00:13:44;;;;;;;0.20;0.20;;;;;;;;;;5113484;28;20055;-48
2023/05/27 00:16:11;;;;;;;0.20;0.20;;;;;;;;;;5105369;28;20410;-50
2023/05/27 00:18:36;;;;;;;0.30;0.30;;;;;;;;;;5110445;28;20468;-47
2023/05/27 00:21:02;;;;;;;0.20;0.20;;;;;;;;;;5108918;27;20533;-47
2023/05/27 00:23:28;;;;;;;0.20;0.20;;;;;;;;;;5111032;28;20047;-47
2023/05/27 00:25:53;;;;;;;0.17;0.17;;;;;;;;;;5106493;28;20051;-48
2023/05/27 00:28:19;;;;;;;0.20;0.20;;;;;;;;;;5115418;27;20410;-47
2023/05/27 00:30:44;;;;;;;0.20;0.20;;;;;;;;;;5108852;27;20138;-48
2023/05/27 00:33:10;;;;;;;0.20;0.20;;;;;;;;;;5106704;28;20044;-48
2023/05/27 00:35:35;;;;;;;0.20;0.20;;;;;;;;;;5110211;28;20059;-48
2023/05/27 00:38:01;;;;;;;0.20;0.20;;;;;;;;;;5107488;28;20436;-48
2023/05/27 00:40:28;;;;;;;0.30;0.30;;;;;;;;;;5111582;27;20640;-47
2023/05/27 00:42:54;;;;;;;0.10;0.10;;;;;;;;;;5098899;28;20507;-47
2023/05/27 00:45:20;;;;;;;0.20;0.20;;;;;;;;;;5117718;28;20043;-47
2023/05/27 00:47:46;;;;;;;0.20;0.20;;;;;;;;;;5115460;28;20043;-48
2023/05/27 00:50:11;;;;;;;0.20;0.20;;;;;;;;;;5116837;27;20104;-48
2023/05/27 00:52:37;;;;;;;0.10;0.10;;;;;;;;;;5117090;28;20073;-47
2023/05/27 00:55:02;;;;;;;0.20;0.20;;;;;;;;;;5117506;28;20078;-49
2023/05/27 00:57:28;;;;;;;0.20;0.20;;;;;;;;;;5117888;28;20043;-47
2023/05/27 00:59:53;;;;;;;0.20;0.20;;;;;;;;;;5116722;27;20535;-48
2023/05/27 01:02:20;;;;;;;0.20;0.20;;;;;;;;;;5127291;27;20126;-47
2023/05/27 01:04:46;;;;;;;0.20;0.20;;;;;;;;;;5138060;27;20052;-47
2023/05/27 01:10:25;;;;;;;0.20;0.20;;;;;;;;;;5174710;27;20202;-44
2023/05/27 01:12:57;;;;;;;0.20;0.20;;;;;;;;;;5138023;27;20061;-45
2023/05/27 01:15:23;;;;;;;0.20;0.20;;;;;;;;;;5153819;27;20408;-44
2023/05/27 01:17:52;;;;;;;0.20;0.20;;;;;;;;;;5154283;27;20506;-46
2023/05/27 01:20:18;;;;;;;0.20;0.20;;;;;;;;;;5153579;27;20530;-48
2023/05/27 01:22:44;;;;;;;0.20;0.20;;;;;;;;;;5121990;27;20043;-46
2023/05/27 01:25:10;;;;;;;0.10;0.10;;;;;;;;;;5132845;27;20504;-46
2023/05/27 01:27:35;;;;;;;0.20;0.20;;;;;;;;;;5114401;27;20123;-45
2023/05/27 01:30:01;;;;;;;0.20;0.20;;;;;;;;;;5132025;27;20080;-45
2023/05/27 01:32:29;;;;;;;0.20;0.20;;;;;;;;;;5114295;27;20489;-45
2023/05/27 01:35:02;;;;;;;0.20;0.20;;;;;;;;;;5132753;27;20115;-46
2023/05/27 01:37:30;;;;;;;0.20;0.20;;;;;;;;;;5114214;27;20053;-45
2023/05/27 01:39:56;;;;;;;0.20;0.20;;;;;;;;;;5131552;27;20035;-47
2023/05/27 01:42:22;;;;;;;0.20;0.20;;;;;;;;;;5131995;27;20049;-45
2023/05/27 01:44:48;;;;;;;0.20;0.20;;;;;;;;;;5132274;27;20089;-46
2023/05/27 01:47:13;;;;;;;0.20;0.20;;;;;;;;;;5132058;27;20482;-46
2023/05/27 01:49:39;;;;;;;0.20;0.20;;;;;;;;;;5132161;27;20046;-45
2023/05/27 01:52:04;;;;;;;0.20;0.20;;;;;;;;;;5131855;27;20043;-45
2023/05/27 01:54:30;;;;;;;0.20;0.20;;;;;;;;;;5132191;27;20050;-46
2023/05/27 01:56:56;;;;;;;0.20;0.20;;;;;;;;;;5131984;27;20583;-45
2023/05/27 01:59:21;;;;;;;0.20;0.20;;;;;;;;;;5113679;27;20096;-47
2023/05/27 02:01:47;;;;;;;0.20;0.20;;;;;;;;;;5137438;27;20661;-46
2023/05/27 02:04:12;;;;;;;0.20;0.20;;;;;;;;;;5153174;27;20732;-46
2023/05/27 02:06:38;;;;;;;0.20;0.20;;;;;;;;;;5152365;27;20408;-46
2023/05/27 02:09:04;;;;;;;0.20;0.20;;;;;;;;;;5124295;27;20043;-44
2023/05/27 02:11:30;;;;;;;0.20;0.20;;;;;;;;;;5129258;27;20074;-45
2023/05/27 02:13:56;;;;;;;0.20;0.20;;;;;;;;;;5131281;27;20046;-45
2023/05/27 02:16:22;;;;;;;0.20;0.20;;;;;;;;;;5131824;27;20107;-45
2023/05/27 02:18:48;;;;;;;0.20;0.20;;;;;;;;;;5113382;27;20043;-45
2023/05/27 02:21:14;;;;;;;0.20;0.20;;;;;;;;;;5119554;27;20062;-46
2023/05/27 02:23:40;;;;;;;0.20;0.20;;;;;;;;;;5117603;28;20043;-45
2023/05/27 02:26:05;;;;;;;0.20;0.20;;;;;;;;;;5118029;28;20432;-45
2023/05/27 02:28:33;;;;;;;0.20;0.20;;;;;;;;;;5117873;28;20043;-45
2023/05/27 02:30:59;;;;;;;0.20;0.20;;;;;;;;;;5116725;28;20271;-46
2023/05/27 02:33:25;;;;;;;0.20;0.20;;;;;;;;;;5117627;28;20047;-45
2023/05/27 02:35:50;;;;;;;0.20;0.20;;;;;;;;;;5098991;28;20054;-45
2023/05/27 02:38:16;;;;;;;0.20;0.20;;;;;;;;;;5117466;28;20058;-45
2023/05/27 02:40:42;;;;;;;0.20;0.20;;;;;;;;;;5117082;27;20043;-46
2023/05/27 02:43:08;;;;;;;0.20;0.20;;;;;;;;;;5116898;28;20047;-46
2023/05/27 02:45:33;;;;;;;0.20;0.20;;;;;;;;;;5128262;27;20053;-46
2023/05/27 02:48:01;;;;;;;0.20;0.20;;;;;;;;;;5137960;27;20106;-45
2023/05/27 02:50:27;;;;;;;0.20;0.20;;;;;;;;;;5119046;27;20043;-46
2023/05/27 02:52:52;;;;;;;0.20;0.20;;;;;;;;;;5117453;28;20054;-46
2023/05/27 02:55:18;;;;;;;0.20;0.20;;;;;;;;;;5117050;28;20085;-46
2023/05/27 02:57:43;;;;;;;0.20;0.20;;;;;;;;;;5117200;28;20047;-46
2023/05/27 03:00:10;;;;;;;0.20;0.20;;;;;;;;;;5117116;27;20138;-45
2023/05/27 03:02:35;;;;;;;0.20;0.20;;;;;;;;;;5129683;27;20511;-45
2023/05/27 03:05:01;;;;;;;0.20;0.20;;;;;;;;;;5137677;27;20146;-45
2023/05/27 03:07:28;;;;;;;0.20;0.20;;;;;;;;;;5137602;27;20039;-45
2023/05/27 03:09:55;;;;;;;0.20;0.20;;;;;;;;;;5132849;27;20075;-46
2023/05/27 03:12:21;;;;;;;0.20;0.20;;;;;;;;;;5117338;28;20332;-46
2023/05/27 03:14:46;;;;;;;0.30;0.30;;;;;;;;;;5117104;28;20043;-45
2023/05/27 03:17:12;;;;;;;0.20;0.20;;;;;;;;;;5117360;28;20080;-46
2023/05/27 03:19:37;;;;;;;0.20;0.20;;;;;;;;;;5102927;28;20050;-45
2023/05/27 03:22:03;;;;;;;0.20;0.20;;;;;;;;;;5105388;27;20047;-46
2023/05/27 03:24:29;;;;;;;0.20;0.20;;;;;;;;;;5101567;28;20043;-46
2023/05/27 03:26:54;;;;;;;0.20;0.20;;;;;;;;;;5112767;28;20051;-46
2023/05/27 03:29:20;;;;;;;0.20;0.20;;;;;;;;;;5094744;28;20043;-47
2023/05/27 03:31:45;;;;;;;0.20;0.20;;;;;;;;;;5115272;27;20051;-45
2023/05/27 03:34:11;;;;;;;0.20;0.20;;;;;;;;;;5094591;28;20419;-45
2023/05/27 03:36:38;;;;;;;0.20;0.20;;;;;;;;;;5075570;28;20416;-46
2023/05/27 03:39:04;;;;;;;0.20;0.20;;;;;;;;;;5076264;28;20051;-46
2023/05/27 03:41:30;;;;;;;0.20;0.20;;;;;;;;;;5097294;28;20054;-45
2023/05/27 03:43:56;;;;;;;0.20;0.20;;;;;;;;;;5098244;28;20047;-45
2023/05/27 03:46:21;;;;;;;0.20;0.20;;;;;;;;;;5104963;28;20049;-45
2023/05/27 03:48:47;;;;;;;0.20;0.20;;;;;;;;;;5103163;28;20349;-47
2023/05/27 03:51:12;;;;;;;0.20;0.20;;;;;;;;;;5115680;28;20354;-46
2023/05/27 03:53:38;;;;;;;0.10;0.10;;;;;;;;;;5116880;27;20211;-45
2023/05/27 03:56:04;;;;;;;0.20;0.20;;;;;;;;;;5117032;28;20071;-46
2023/05/27 03:58:29;;;;;;;0.20;0.20;;;;;;;;;;5116333;28;20559;-46
2023/05/27 04:00:55;;;;;;;0.20;0.20;;;;;;;;;;5107475;27;20344;-45
2023/05/27 04:03:21;;;;;;;0.20;0.20;;;;;;;;;;5103645;27;20051;-46
2023/05/27 04:05:46;;;;;;;0.20;0.20;;;;;;;;;;5116834;28;20070;-46
2023/05/27 04:08:13;;;;;;;0.20;0.20;;;;;;;;;;5115885;28;20079;-46
2023/05/27 04:10:38;;;;;;;0.20;0.20;;;;;;;;;;5115953;28;20043;-46
2023/05/27 04:13:04;;;;;;;0.10;0.10;;;;;;;;;;5116123;28;20142;-46
2023/05/27 04:15:30;;;;;;;0.10;0.10;;;;;;;;;;5116693;28;20502;-45
2023/05/27 04:17:55;;;;;;;0.20;0.20;;;;;;;;;;5097156;28;20193;-44
2023/05/27 04:20:21;;;;;;;0.20;0.20;;;;;;;;;;5115467;28;20043;-46
2023/05/27 04:22:47;;;;;;;0.20;0.20;;;;;;;;;;5116308;27;20502;-45
2023/05/27 04:25:12;;;;;;;0.20;0.20;;;;;;;;;;5116553;28;20047;-45
2023/05/27 04:27:38;;;;;;;0.20;0.20;;;;;;;;;;5097754;28;20354;-47
2023/05/27 04:30:04;;;;;;;0.20;0.20;;;;;;;;;;5115573;28;20061;-46
2023/05/27 04:32:39;;;;;;;0.20;0.20;;;;;;;;;;5115869;28;20343;-45
2023/05/27 04:35:07;;;;;;;0.20;0.20;;;;;;;;;;5099231;28;20047;-44
2023/05/27 04:37:33;;;;;;;;;;;;;;;;;;5098267;28;20054;-45
2023/05/27 04:39:58;;;;;;;0.20;0.20;;;;;;;;;;5115239;27;19923;-46
2023/05/27 04:42:27;;;;;;;0.20;0.20;;;;;;;;;;5115323;27;20487;-47
2023/05/27 04:44:52;;;;;;;0.20;0.20;;;;;;;;;;5115676;28;20054;-46
2023/05/27 04:47:18;;;;;;;0.20;0.20;;;;;;;;;;5115973;28;20047;-46
2023/05/27 04:49:46;;;;;;;0.20;0.20;;;;;;;;;;5115061;28;20089;-46
2023/05/27 04:52:12;;;;;;;0.20;0.20;;;;;;;;;;5115348;28;20043;-47
2023/05/27 04:54:38;;;;;;;0.15;0.15;;;;;;;;;;5097277;28;20051;-45
2023/05/27 04:57:03;;;;;;;0.20;0.20;;;;;;;;;;5116188;28;20455;-46
2023/05/27 04:59:45;;;;;;;0.20;0.20;;;;;;;;;;5115238;27;20111;-46
2023/05/27 05:02:21;;;;;;;0.20;0.20;;;;;;;;;;5124353;27;20293;-45
2023/05/27 05:04:47;;;;;;;0.20;0.20;;;;;;;;;;5119327;27;20054;-45
2023/05/27 05:07:12;;;;;;;0.20;0.20;;;;;;;;;;5117883;27;20493;-46
2023/05/27 05:09:38;;;;;;;0.10;0.10;;;;;;;;;;5133353;27;20185;-46
2023/05/27 05:12:04;;;;;;;0.20;0.20;;;;;;;;;;5114762;28;20047;-45
2023/05/27 05:14:30;;;;;;;0.20;0.20;;;;;;;;;;5115122;28;20099;-46
2023/05/27 05:16:55;;;;;;;0.10;0.10;;;;;;;;;;5115964;28;20043;-45
2023/05/27 05:19:21;;;;;;;0.20;0.20;;;;;;;;;;5115632;28;20055;-44
2023/05/27 05:21:47;;;;;;;0.20;0.20;;;;;;;;;;5115436;27;20055;-47
2023/05/27 05:24:12;;;;;;;0.20;0.20;;;;;;;;;;5115296;28;20464;-46
2023/05/27 05:26:38;;;;;;;0.20;0.20;;;;;;;;;;5115677;28;20055;-46
2023/05/27 05:29:03;;;;;;;0.10;0.10;;;;;;;;;;5115443;28;20039;-45
2023/05/27 05:31:29;;;;;;;0.20;0.20;;;;;;;;;;5114792;28;20050;-48
2023/05/27 05:33:54;;;;;;;0.20;0.20;;;;;;;;;;5115343;28;20039;-47
2023/05/27 05:36:20;;;;;;;0.20;0.20;;;;;;;;;;5114796;28;20552;-45
2023/05/27 05:38:47;;;;;;;0.20;0.20;;;;;;;;;;5115693;27;20341;-47
2023/05/27 05:41:12;;;;;;;0.20;0.20;;;;;;;;;;5106791;27;20124;-47
2023/05/27 05:43:38;;;;;;;0.20;0.20;;;;;;;;;;5114856;28;20047;-45
2023/05/27 05:46:03;;;;;;;0.20;0.20;;;;;;;;;;5114987;28;20061;-46
2023/05/27 05:48:29;;;;;;;0.20;0.20;;;;;;;;;;5115417;28;20047;-47
2023/05/27 05:50:54;;;;;;;0.10;0.10;;;;;;;;;;5114572;28;20142;-47
2023/05/27 05:53:20;;;;;;;0.20;0.20;;;;;;;;;;5115217;28;20499;-47
2023/05/27 05:55:46;;;;;;;0.20;0.20;;;;;;;;;;5116227;27;20302;-48
2023/05/27 05:58:11;;;;;;;0.20;0.20;;;;;;;;;;5119076;28;20047;-47
2023/05/27 06:00:37;;;;;;;0.20;0.20;;;;;;;;;;5118334;27;20259;-46
2023/05/27 06:03:03;;;;;;;0.20;0.20;;;;;;;;;;5116225;27;20446;-44
2023/05/27 06:05:28;;;;;;;0.10;0.10;;;;;;;;;;5138854;27;20411;-47
2023/05/27 06:07:54;;;;;;;0.20;0.20;;;;;;;;;;5138827;27;20516;-48
2023/05/27 06:10:20;;;;;;;0.20;0.20;;;;;;;;;;5130115;27;20490;-47
2023/05/27 06:12:45;;;;;;;0.20;0.20;;;;;;;;;;5099284;28;20431;-46
2023/05/27 06:15:12;;;;;;;0.20;0.20;;;;;;;;;;5117908;28;20297;-48
2023/05/27 06:17:37;;;;;;;0.20;0.20;;;;;;;;;;5118015;28;20109;-46
2023/05/27 06:20:03;;;;;;;0.20;0.20;;;;;;;;;;5118071;28;20047;-46
2023/05/27 06:22:28;;;;;;;0.20;0.20;;;;;;;;;;5118018;27;20074;-50
2023/05/27 06:24:54;;;;;;;0.20;0.20;;;;;;;;;;5118027;28;20119;-48
2023/05/27 06:27:20;;;;;;;0.20;0.20;;;;;;;;;;5118006;28;20090;-45
2023/05/27 06:29:45;;;;;;;0.20;0.20;;;;;;;;;;5117815;28;20039;-46
2023/05/27 06:32:11;;;;;;;0.22;0.22;;;;;;;;;;5117966;28;20100;-46
2023/05/27 06:34:36;;;;;;;0.20;0.20;;;;;;;;;;5117513;28;20456;-48
2023/05/27 06:37:02;;;;;;;0.20;0.20;;;;;;;;;;5117010;28;20043;-46
2023/05/27 06:39:27;;;;;;;0.20;0.20;;;;;;;;;;5117871;28;20043;-46
2023/05/27 06:41:53;;;;;;;0.20;0.20;;;;;;;;;;5117733;28;20116;-47
2023/05/27 06:44:19;;;;;;;0.20;0.20;;;;;;;;;;5117961;28;20544;-49
2023/05/27 06:46:44;;;;;;;0.20;0.20;;;;;;;;;;5117840;28;20483;-48
2023/05/27 06:49:10;;;;;;;0.13;0.13;;;;;;;;;;5117960;28;20098;-46
2023/05/27 06:51:36;;;;;;;0.20;0.20;;;;;;;;;;5118030;28;20311;-47
2023/05/27 06:54:02;;;;;;;0.20;0.20;;;;;;;;;;5099068;28;20100;-45
2023/05/27 06:56:27;;;;;;;0.20;0.20;;;;;;;;;;5117303;28;20402;-46
2023/05/27 06:58:53;;;;;;;0.20;0.20;;;;;;;;;;5099196;28;20092;-47
2023/05/27 07:01:18;;;;;;;0.20;0.20;;;;;;;;;;5119426;27;20043;-46
2023/05/27 07:03:44;;;;;;;0.20;0.20;;;;;;;;;;5138211;27;20125;-48
2023/05/27 07:06:10;;;;;;;0.20;0.20;;;;;;;;;;5138192;27;20053;-45
2023/05/27 07:08:35;;;;;;;0.20;0.20;;;;;;;;;;5119321;27;20475;-46
2023/05/27 07:11:01;;;;;;;0.10;0.10;;;;;;;;;;5124033;27;20454;-48
2023/05/27 07:13:27;;;;;;;0.20;0.20;;;;;;;;;;5117209;28;20604;-48
2023/05/27 07:15:52;;;;;;;0.20;0.20;;;;;;;;;;5117692;28;20043;-48
2023/05/27 07:18:18;;;;;;;0.20;0.20;;;;;;;;;;5116992;28;20046;-45
2023/05/27 07:20:43;;;;;;;0.20;0.20;;;;;;;;;;5116783;28;20051;-46
2023/05/27 07:23:09;;;;;;;0.20;0.20;;;;;;;;;;5117258;27;20440;-46
2023/05/27 07:25:34;;;;;;;0.20;0.20;;;;;;;;;;5116730;28;20149;-46
2023/05/27 07:28:00;;;;;;;0.20;0.20;;;;;;;;;;5116596;28;20051;-46
2023/05/27 07:30:25;;;;;;;0.20;0.20;;;;;;;;;;5094490;28;20069;-47
2023/05/27 07:32:51;;;;;;;0.20;0.20;;;;;;;;;;5096587;28;20051;-46
2023/05/27 07:35:17;;;;;;;0.20;0.20;;;;;;;;;;5096026;28;20048;-44
2023/05/27 07:37:42;;;;;;;0.15;0.15;;;;;;;;;;5096055;28;20052;-46
2023/05/27 07:40:08;;;;;;;0.20;0.20;;;;;;;;;;5106643;27;20039;-47
2023/05/27 07:42:34;;;;;;;0.20;0.20;;;;;;;;;;5116635;28;20437;-46
2023/05/27 07:44:59;;;;;;;0.20;0.20;;;;;;;;;;5116361;28;20039;-48
2023/05/27 07:47:25;;;;;;;0.20;0.20;;;;;;;;;;5116247;28;20047;-47
2023/05/27 07:49:50;;;;;;;0.20;0.20;;;;;;;;;;5115876;28;20633;-48
2023/05/27 07:52:16;;;;;;;0.20;0.20;;;;;;;;;;5116391;28;20066;-47
2023/05/27 07:54:41;;;;;;;0.20;0.20;;;;;;;;;;5116355;28;20051;-45
2023/05/27 07:57:20;;;;;;;0.20;0.20;;;;;;;;;;5116219;28;20597;-45
2023/05/27 07:59:45;;;;;;;0.20;0.20;;;;;;;;;;5115577;27;20085;-46
2023/05/27 08:02:11;;;;;;;0.20;0.20;;;;;;;;;;5125458;27;20137;-44
2023/05/27 08:04:36;;;;;;;0.20;0.20;;;;;;;;;;5136819;27;20059;-44
2023/05/27 08:07:02;;;;;;;0.20;0.20;;;;;;;;;;5136935;27;20047;-46
2023/05/27 08:09:27;;;;;;;0.20;0.20;;;;;;;;;;5117145;27;20058;-48
2023/05/27 08:11:53;;;;;;;0.20;0.20;;;;;;;;;;5116723;28;20115;-45
2023/05/27 08:14:20;;;;;;;0.20;0.20;;;;;;;;;;5117060;28;20070;-45
2023/05/27 08:16:46;;;;;;;0.20;0.20;;;;;;;;;;5116544;28;20039;-45
2023/05/27 08:19:11;;;;;;;0.20;0.20;;;;;;;;;;5115987;27;20066;-45
2023/05/27 08:21:37;;;;;;;0.20;0.20;;;;;;;;;;5116288;27;20514;-46
2023/05/27 08:24:03;;;;;;;0.20;0.20;;;;;;;;;;5117102;28;20100;-46
2023/05/27 08:26:28;;;;;;;0.20;0.20;;;;;;;;;;5116701;28;20058;-50
2023/05/27 08:28:54;;;;;;;0.20;0.20;;;;;;;;;;5116732;28;20129;-45
2023/05/27 08:31:19;;;;;;;0.20;0.20;;;;;;;;;;5116212;28;20047;-46
2023/05/27 08:33:45;;;;;;;0.10;0.10;;;;;;;;;;5116361;28;20099;-46
2023/05/27 08:36:11;;;;;;;0.20;0.20;;;;;;;;;;5116964;28;20387;-48
2023/05/27 08:38:37;;;;;;;0.20;0.20;;;;;;;;;;5116488;28;20047;-46
2023/05/27 08:41:02;;;;;;;0.10;0.10;;;;;;;;;;5107035;27;20054;-49
2023/05/27 08:43:29;;;;;;;0.20;0.20;;;;;;;;;;5115769;27;20073;-45
2023/05/27 08:45:54;;;;;;;0.20;0.20;;;;;;;;;;5116843;27;20050;-44
2023/05/27 08:48:20;;;;;;;0.20;0.20;;;;;;;;;;5116409;28;20504;-46
2023/05/27 08:50:45;;;;;;;0.20;0.20;;;;;;;;;;5115928;28;20054;-46
2023/05/27 08:53:11;;;;;;;0.20;0.20;;;;;;;;;;5116160;28;20140;-45
2023/05/27 08:55:38;;;;;;;0.20;0.20;;;;;;;;;;5116621;28;20133;-44
2023/05/27 08:58:05;;;;;;;0.20;0.20;;;;;;;;;;5116215;28;20403;-46
2023/05/27 09:00:30;;;;;;;0.20;0.20;;;;;;;;;;5101945;28;20332;-45
2023/05/27 09:02:59;;;;;;;0.20;0.20;;;;;;;;;;5131381;27;20362;-45
2023/05/27 09:05:25;;;;;;;0.20;0.20;;;;;;;;;;5136747;27;20051;-45
2023/05/27 09:07:51;;;;;;;0.20;0.20;;;;;;;;;;5118154;27;20084;-48
2023/05/27 09:10:16;;;;;;;0.20;0.20;;;;;;;;;;5128301;27;20079;-45
2023/05/27 09:12:43;;;;;;;0.20;0.20;;;;;;;;;;5115538;28;20047;-45
2023/05/27 09:15:10;;;;;;;0.20;0.20;;;;;;;;;;5097334;28;20075;-46
2023/05/27 09:17:39;;;;;;;0.10;0.10;;;;;;;;;;5116366;28;20045;-44
2023/05/27 09:20:07;;;;;;;0.20;0.20;;;;;;;;;;5115404;28;20074;-45
2023/05/27 09:22:33;;;;;;;0.20;0.20;;;;;;;;;;5115743;27;20057;-44
2023/05/27 09:24:59;;;;;;;0.17;0.17;;;;;;;;;;5115942;28;20043;-46
2023/05/27 09:27:27;;;;;;;0.20;0.20;;;;;;;;;;5097534;28;20396;-49
2023/05/27 09:29:52;;;;;;;0.20;0.20;;;;;;;;;;5115716;27;20046;-46
2023/05/27 09:32:33;;;;;;;0.20;0.20;;;;;;;;;;5100827;28;20046;-47
2023/05/27 09:35:00;;;;;;;0.20;0.20;;;;;;;;;;5119243;28;20047;-45
2023/05/27 09:37:31;;;;;;;0.20;0.20;;;;;;;;;;5119270;28;20427;-49
2023/05/27 09:39:58;;;;;;;0.20;0.20;;;;;;;;;;5112404;27;20509;-47
2023/05/27 09:42:24;;;;;;;0.20;0.20;;;;;;;;;;5098501;28;20447;-48
2023/05/27 09:44:50;;;;;;;0.10;0.10;;;;;;;;;;5106856;28;20061;-45
2023/05/27 09:47:18;;;;;;;0.20;0.20;;;;;;;;;;5106528;28;20077;-46
2023/05/27 09:49:45;;;;;;;0.10;0.10;;;;;;;;;;5118991;28;20146;-47
2023/05/27 09:52:10;;;;;;;0.20;0.20;;;;;;;;;;5118445;28;20043;-48
2023/05/27 09:54:36;;;;;;;0.20;0.20;;;;;;;;;;5107547;28;20121;-47
2023/05/27 09:57:03;;;;;;;0.20;0.20;;;;;;;;;;5108293;28;20066;-48
2023/05/27 09:59:29;;;;;;;0.20;0.20;;;;;;;;;;5119113;27;20047;-47
2023/05/27 10:01:55;;;;;;;0.20;0.20;;;;;;;;;;5118034;28;20047;-47
2023/05/27 10:04:20;;;;;;;0.20;0.20;;;;;;;;;;5118656;28;20476;-49
2023/05/27 10:06:46;;;;;;;0.20;0.20;;;;;;;;;;5118610;28;20079;-48
2023/05/27 10:09:13;;;;;;;0.20;0.20;;;;;;;;;;5119457;28;20046;-46
2023/05/27 10:11:39;;;;;;;0.20;0.20;;;;;;;;;;5118130;28;20043;-47
2023/05/27 10:14:05;;;;;;;0.20;0.20;;;;;;;;;;5118400;27;20074;-47
2023/05/27 10:16:31;;;;;;;0.20;0.20;;;;;;;;;;5118445;28;20055;-46
2023/05/27 10:18:57;;;;;;;0.20;0.20;;;;;;;;;;5091733;28;20426;-46
2023/05/27 10:21:24;;;;;;;0.20;0.20;;;;;;;;;;5096365;27;20139;-49
2023/05/27 10:23:55;;;;;;;0.20;0.20;;;;;;;;;;5098991;28;20047;-48
2023/05/27 10:26:30;;;;;;;0.20;0.20;;;;;;;;;;5097755;28;20047;-47
2023/05/27 10:29:04;;;;;;;0.20;0.20;;;;;;;;;;5098264;27;20087;-45
2023/05/27 10:31:30;;;;;;;0.20;0.20;;;;;;;;;;5116233;28;20047;-47
2023/05/27 10:33:57;;;;;;;0.20;0.20;;;;;;;;;;5115605;28;20047;-49
2023/05/27 10:36:24;;;;;;;0.20;0.20;;;;;;;;;;5078834;28;20047;-47
2023/05/27 10:39:10;;;;;;;0.20;0.20;;;;;;;;;;5084761;28;20240;-49
2023/05/27 10:41:39;;;;;;;0.20;0.20;;;;;;;;;;5094654;28;20051;-49
2023/05/27 10:44:05;;;;;;;0.20;0.20;;;;;;;;;;5104661;28;20314;-48
2023/05/27 10:46:46;;;;;;;0.20;0.20;;;;;;;;;;5118103;28;20810;-46
2023/05/27 10:49:15;;;;;;;0.20;0.20;;;;;;;;;;5117647;27;20051;-46
2023/05/27 10:51:43;;;;;;;0.20;0.20;;;;;;;;;;5117843;28;20392;-46
2023/05/27 10:54:09;;;;;;;0.10;0.10;;;;;;;;;;5099656;28;20051;-47
2023/05/27 10:56:47;;;;;;;0.20;0.20;;;;;;;;;;5100717;28;20050;-46
2023/05/27 10:59:16;;;;;;;0.20;0.20;;;;;;;;;;5112576;28;20483;-46
2023/05/27 11:01:42;;;;;;;0.20;0.20;;;;;;;;;;5120879;27;20508;-47
2023/05/27 11:04:07;;;;;;;0.20;0.20;;;;;;;;;;5117463;28;20043;-46
2023/05/27 11:06:33;;;;;;;0.20;0.20;;;;;;;;;;5117290;28;20058;-46
2023/05/27 11:08:58;;;;;;;0.20;0.20;;;;;;;;;;5117457;27;20047;-48
2023/05/27 11:11:24;;;;;;;0.20;0.20;;;;;;;;;;5117709;28;20718;-47
2023/05/27 11:13:50;;;;;;;0.20;0.20;;;;;;;;;;5116990;28;20334;-46
2023/05/27 11:16:15;;;;;;;0.20;0.20;;;;;;;;;;5117178;28;20415;-46
2023/05/27 11:18:42;;;;;;;0.20;0.20;;;;;;;;;;5117021;28;20093;-49
2023/05/27 11:21:09;;;;;;;0.20;0.20;;;;;;;;;;5098595;28;20055;-45
2023/05/27 11:23:40;;;;;;;0.20;0.20;;;;;;;;;;5117459;28;20074;-46
2023/05/27 11:26:13;;;;;;;0.20;0.20;;;;;;;;;;5117155;27;20100;-48
2023/05/27 11:29:00;;;;;;;0.20;0.20;;;;;;;;;;5116079;28;20074;-47
2023/05/27 11:31:28;;;;;;;0.20;0.20;;;;;;;;;;5115878;28;20485;-48
2023/05/27 11:33:53;;;;;;;0.10;0.10;;;;;;;;;;5116055;28;20519;-50
2023/05/27 11:36:21;;;;;;;0.20;0.20;;;;;;;;;;5116384;28;20374;-47
2023/05/27 11:41:23;;;;;;;0.17;0.17;;;;;;;;;;5163854;27;20316;-49
2023/05/27 11:43:50;;;;;;;0.20;0.20;;;;;;;;;;5150637;27;20372;-49
2023/05/27 11:46:16;;;;;;;0.20;0.20;;;;;;;;;;5142427;27;20046;-46
2023/05/27 11:48:42;;;;;;;0.20;0.20;;;;;;;;;;5154055;27;20081;-47
2023/05/27 11:51:08;;;;;;;0.15;0.15;;;;;;;;;;5134749;27;20054;-48
2023/05/27 11:53:35;;;;;;;0.20;0.20;;;;;;;;;;5153874;27;20091;-48
2023/05/27 11:56:00;;;;;;;0.20;0.20;;;;;;;;;;5153085;27;20046;-46
2023/05/27 11:58:26;;;;;;;0.20;0.20;;;;;;;;;;5153442;27;20058;-48
2023/05/27 12:00:51;;;;;;;0.20;0.20;;;;;;;;;;5142012;27;20073;-47
2023/05/27 12:03:17;;;;;;;0.20;0.20;;;;;;;;;;5172160;27;20079;-47
2023/05/27 12:05:43;;;;;;;0.20;0.20;;;;;;;;;;5161109;27;20106;-49
2023/05/27 12:08:08;;;;;;;0.20;0.20;;;;;;;;;;5152833;27;20043;-47
2023/05/27 12:10:34;;;;;;;0.20;0.20;;;;;;;;;;5153049;27;20053;-46
2023/05/27 12:13:06;;;;;;;0.20;0.20;;;;;;;;;;5153291;27;20287;-45
2023/05/27 12:15:32;;;;;;;0.10;0.10;;;;;;;;;;5135169;27;20100;-49
2023/05/27 12:17:58;;;;;;;0.10;0.10;;;;;;;;;;5153530;27;20051;-47
2023/05/27 12:20:27;;;;;;;0.20;0.20;;;;;;;;;;5143906;27;20107;-49
2023/05/27 12:22:53;;;;;;;0.20;0.20;;;;;;;;;;5132119;27;20042;-48
2023/05/27 12:25:19;;;;;;;0.20;0.20;;;;;;;;;;5132931;27;20047;-48
2023/05/27 12:27:45;;;;;;;0.20;0.20;;;;;;;;;;5145339;27;20065;-48
2023/05/27 12:30:11;;;;;;;0.20;0.20;;;;;;;;;;5152757;27;20410;-47
2023/05/27 12:32:36;;;;;;;0.10;0.10;;;;;;;;;;5153082;27;20482;-47
2023/05/27 12:35:02;;;;;;;0.20;0.20;;;;;;;;;;5153429;27;20038;-45
2023/05/27 12:37:27;;;;;;;0.20;0.20;;;;;;;;;;5152551;27;20406;-48
2023/05/27 12:39:53;;;;;;;0.20;0.20;;;;;;;;;;5152631;27;20047;-48
2023/05/27 12:42:18;;;;;;;0.20;0.20;;;;;;;;;;5152572;27;20078;-49
2023/05/27 12:44:44;;;;;;;0.20;0.20;;;;;;;;;;5152955;27;20083;-49
2023/05/27 12:47:09;;;;;;;0.20;0.20;;;;;;;;;;5152843;27;20503;-46
2023/05/27 12:49:36;;;;;;;0.20;0.20;;;;;;;;;;5150593;27;20493;-48
2023/05/27 12:52:02;;;;;;;0.20;0.20;;;;;;;;;;5122783;27;20051;-45
2023/05/27 12:54:28;;;;;;;0.20;0.20;;;;;;;;;;5118276;28;20047;-50
2023/05/27 12:56:54;;;;;;;0.20;0.20;;;;;;;;;;5118336;28;20055;-46
2023/05/27 12:59:20;;;;;;;0.20;0.20;;;;;;;;;;5118097;28;20523;-49
2023/05/27 13:01:45;;;;;;;0.20;0.20;;;;;;;;;;5129416;27;20512;-46
2023/05/27 13:04:11;;;;;;;0.20;0.20;;;;;;;;;;5159543;27;20070;-47
2023/05/27 13:06:37;;;;;;;0.20;0.20;;;;;;;;;;5159654;27;20053;-48
2023/05/27 13:09:03;;;;;;;0.20;0.20;;;;;;;;;;5160224;27;20043;-45
2023/05/27 13:11:29;;;;;;;0.20;0.20;;;;;;;;;;5123058;27;20518;-47
2023/05/27 13:13:55;;;;;;;0.20;0.20;;;;;;;;;;5118030;28;20783;-48
2023/05/27 13:16:20;;;;;;;0.20;0.20;;;;;;;;;;5118725;28;20423;-48
2023/05/27 13:18:46;;;;;;;0.20;0.20;;;;;;;;;;5118342;28;20496;-49
2023/05/27 13:21:12;;;;;;;0.20;0.20;;;;;;;;;;5118202;27;20134;-48
2023/05/27 13:23:37;;;;;;;0.20;0.20;;;;;;;;;;5118491;28;20233;-48
2023/05/27 13:26:03;;;;;;;0.20;0.20;;;;;;;;;;5123106;27;20411;-47
2023/05/27 13:28:28;;;;;;;0.20;0.20;;;;;;;;;;5104602;27;20367;-49
2023/05/27 13:30:54;;;;;;;0.20;0.20;;;;;;;;;;5137894;27;20461;-47
2023/05/27 13:33:19;;;;;;;0.20;0.20;;;;;;;;;;5139012;27;20050;-47
2023/05/27 13:35:45;;;;;;;0.20;0.20;;;;;;;;;;5138822;27;20471;-47
2023/05/27 13:38:13;;;;;;;0.20;0.20;;;;;;;;;;5116287;27;20047;-49
2023/05/27 13:40:39;;;;;;;;;;;;;;;;;;5129003;27;20042;-47
2023/05/27 13:43:04;;;;;;;0.20;0.20;;;;;;;;;;5138248;27;19926;-47
2023/05/27 13:45:30;;;;;;;0.20;0.20;;;;;;;;;;5138432;27;20402;-47
2023/05/27 13:47:56;;;;;;;0.20;0.20;;;;;;;;;;5138847;27;20050;-48
2023/05/27 13:50:21;;;;;;;0.20;0.20;;;;;;;;;;5129765;27;20186;-48
2023/05/27 13:52:47;;;;;;;0.20;0.20;;;;;;;;;;5117779;28;20470;-47
2023/05/27 13:55:12;;;;;;;0.20;0.20;;;;;;;;;;5117863;28;20470;-47
2023/05/27 13:57:38;;;;;;;0.20;0.20;;;;;;;;;;5117849;28;20425;-47
2023/05/27 14:00:06;;;;;;;0.20;0.20;;;;;;;;;;5123677;27;20042;-47
2023/05/27 14:02:31;;;;;;;0.20;0.20;;;;;;;;;;5149610;27;20084;-45
2023/05/27 14:04:57;;;;;;;0.20;0.20;;;;;;;;;;5158025;27;20046;-48
2023/05/27 14:07:23;;;;;;;0.20;0.20;;;;;;;;;;5158897;27;20054;-47
2023/05/27 14:09:48;;;;;;;0.20;0.20;;;;;;;;;;5151400;27;20138;-48
2023/05/27 14:12:14;;;;;;;0.20;0.20;;;;;;;;;;5117363;28;20551;-48
2023/05/27 14:14:40;;;;;;;0.20;0.20;;;;;;;;;;5117313;28;20054;-50
2023/05/27 14:17:08;;;;;;;0.20;0.20;;;;;;;;;;5117357;28;20054;-49
2023/05/27 14:19:33;;;;;;;0.10;0.10;;;;;;;;;;5117246;27;20071;-48
2023/05/27 14:21:59;;;;;;;0.20;0.20;;;;;;;;;;5117484;27;20050;-46
2023/05/27 14:24:24;;;;;;;0.20;0.20;;;;;;;;;;5136637;27;20174;-47
2023/05/27 14:26:50;;;;;;;0.20;0.20;;;;;;;;;;5137843;27;20047;-46
2023/05/27 14:29:15;;;;;;;0.20;0.20;;;;;;;;;;5137881;27;20069;-49
2023/05/27 14:31:41;;;;;;;0.20;0.20;;;;;;;;;;5137209;27;20422;-47
2023/05/27 14:34:07;;;;;;;0.20;0.20;;;;;;;;;;5137740;27;20051;-48
2023/05/27 14:36:32;;;;;;;0.20;0.20;;;;;;;;;;5135845;27;20050;-47
2023/05/27 14:38:58;;;;;;;0.10;0.10;;;;;;;;;;5144337;27;20114;-49
2023/05/27 14:41:26;;;;;;;0.20;0.20;;;;;;;;;;5154239;27;20046;-48
2023/05/27 14:43:52;;;;;;;0.10;0.10;;;;;;;;;;5145657;27;20420;-47